sensor_id;sensor_type;location;lat;lon;timestamp;P1;P2;P0
61760;PMS5003;47664;51.660;-0.100;2023-04-06T00:00:20;35;23;
61760;PMS5003;47664;51.660;-0.100;2023-04-06T00:02:47;33;27;
61760;PMS5003;47664;51.660;-0.100;2023-04-06T00:05:15;32;28;
61760;PMS5003;47664;51.660;-0.100;2023-04-06T00:07:42;29;26;
61760;PMS5003;47664;51.660;-0.100;2023-04-06T00:10:09;32;27;
61760;PMS5003;47664;51.660;-0.100;2023-04-06T00:12:37;34;28;
61760;PMS5003;47664;51.660;-0.100;2023-04-06T00:15:04;33;27;
61760;PMS5003;47664;51.660;-0.100;2023-04-06T00:17:33;25;20;
61760;PMS5003;47664;51.660;-0.100;2023-04-06T00:20:00;32;28;
61760;PMS5003;47664;51.660;-0.100;2023-04-06T00:22:28;29;26;
61760;PMS5003;47664;51.660;-0.100;2023-04-06T00:24:54;30;23;
61760;PMS5003;47664;51.660;-0.100;2023-04-06T00:27:22;24;22;
61760;PMS5003;47664;51.660;-0.100;2023-04-06T00:29:49;28;22;
61760;PMS5003;47664;51.660;-0.100;2023-04-06T00:32:16;25;23;
61760;PMS5003;47664;51.660;-0.100;2023-04-06T00:34:43;23;23;
61760;PMS5003;47664;51.660;-0.100;2023-04-06T00:37:11;27;23;
61760;PMS5003;47664;51.660;-0.100;2023-04-06T00:39:38;22;21;
61760;PMS5003;47664;51.660;-0.100;2023-04-06T00:42:11;27;22;
61760;PMS5003;47664;51.660;-0.100;2023-04-06T00:44:39;21;16;
61760;PMS5003;47664;51.660;-0.100;2023-04-06T00:47:07;20;18;
61760;PMS5003;47664;51.660;-0.100;2023-04-06T00:49:34;23;21;
61760;PMS5003;47664;51.660;-0.100;2023-04-06T00:52:02;24;22;
61760;PMS5003;47664;51.660;-0.100;2023-04-06T00:54:29;17;15;
61760;PMS5003;47664;51.660;-0.100;2023-04-06T00:56:56;22;16;
61760;PMS5003;47664;51.660;-0.100;2023-04-06T00:59:23;18;15;
61760;PMS5003;47664;51.660;-0.100;2023-04-06T01:01:51;18;15;
61760;PMS5003;47664;51.660;-0.100;2023-04-06T01:04:19;22;20;
61760;PMS5003;47664;51.660;-0.100;2023-04-06T01:06:46;15;13;
61760;PMS5003;47664;51.660;-0.100;2023-04-06T01:09:13;14;13;
61760;PMS5003;47664;51.660;-0.100;2023-04-06T01:11:41;20;17;
61760;PMS5003;47664;51.660;-0.100;2023-04-06T01:14:08;20;15;
61760;PMS5003;47664;51.660;-0.100;2023-04-06T01:16:36;13;13;
61760;PMS5003;47664;51.660;-0.100;2023-04-06T01:19:07;15;12;
61760;PMS5003;47664;51.660;-0.100;2023-04-06T01:21:35;18;12;
61760;PMS5003;47664;51.660;-0.100;2023-04-06T01:24:02;11;11;
61760;PMS5003;47664;51.660;-0.100;2023-04-06T01:26:31;15;12;
61760;PMS5003;47664;51.660;-0.100;2023-04-06T01:28:58;14;12;
61760;PMS5003;47664;51.660;-0.100;2023-04-06T01:31:26;13;11;
61760;PMS5003;47664;51.660;-0.100;2023-04-06T01:33:54;15;12;
61760;PMS5003;47664;51.660;-0.100;2023-04-06T01:36:21;16;15;
61760;PMS5003;47664;51.660;-0.100;2023-04-06T01:38:49;14;13;
61760;PMS5003;47664;51.660;-0.100;2023-04-06T01:41:16;12;11;
61760;PMS5003;47664;51.660;-0.100;2023-04-06T01:43:44;22;15;
61760;PMS5003;47664;51.660;-0.100;2023-04-06T01:46:12;12;11;
61760;PMS5003;47664;51.660;-0.100;2023-04-06T01:48:39;18;12;
61760;PMS5003;47664;51.660;-0.100;2023-04-06T01:51:06;16;13;
61760;PMS5003;47664;51.660;-0.100;2023-04-06T01:53:33;11;11;
61760;PMS5003;47664;51.660;-0.100;2023-04-06T01:56:00;11;9;
61760;PMS5003;47664;51.660;-0.100;2023-04-06T01:58:28;15;12;
61760;PMS5003;47664;51.660;-0.100;2023-04-06T02:00:56;13;13;
61760;PMS5003;47664;51.660;-0.100;2023-04-06T02:03:23;15;13;
61760;PMS5003;47664;51.660;-0.100;2023-04-06T02:05:50;16;16;
61760;PMS5003;47664;51.660;-0.100;2023-04-06T02:08:17;17;10;
61760;PMS5003;47664;51.660;-0.100;2023-04-06T02:10:44;12;11;
61760;PMS5003;47664;51.660;-0.100;2023-04-06T02:13:12;11;11;
61760;PMS5003;47664;51.660;-0.100;2023-04-06T02:15:39;14;10;
61760;PMS5003;47664;51.660;-0.100;2023-04-06T02:18:06;11;9;
61760;PMS5003;47664;51.660;-0.100;2023-04-06T02:20:34;12;10;
61760;PMS5003;47664;51.660;-0.100;2023-04-06T02:23:01;9;9;
61760;PMS5003;47664;51.660;-0.100;2023-04-06T02:25:29;13;10;
61760;PMS5003;47664;51.660;-0.100;2023-04-06T02:27:56;11;9;
61760;PMS5003;47664;51.660;-0.100;2023-04-06T02:30:23;10;9;
61760;PMS5003;47664;51.660;-0.100;2023-04-06T02:32:50;9;7;
61760;PMS5003;47664;51.660;-0.100;2023-04-06T02:35:17;10;10;
61760;PMS5003;47664;51.660;-0.100;2023-04-06T02:37:44;12;12;
61760;PMS5003;47664;51.660;-0.100;2023-04-06T02:40:11;10;9;
61760;PMS5003;47664;51.660;-0.100;2023-04-06T02:42:40;13;11;
61760;PMS5003;47664;51.660;-0.100;2023-04-06T02:45:07;11;9;
61760;PMS5003;47664;51.660;-0.100;2023-04-06T02:47:35;14;9;
61760;PMS5003;47664;51.660;-0.100;2023-04-06T02:50:02;10;8;
61760;PMS5003;47664;51.660;-0.100;2023-04-06T02:52:29;10;9;
61760;PMS5003;47664;51.660;-0.100;2023-04-06T02:54:56;13;12;
61760;PMS5003;47664;51.660;-0.100;2023-04-06T02:57:23;11;8;
61760;PMS5003;47664;51.660;-0.100;2023-04-06T02:59:50;7;7;
61760;PMS5003;47664;51.660;-0.100;2023-04-06T03:02:17;11;8;
61760;PMS5003;47664;51.660;-0.100;2023-04-06T03:04:44;8;8;
61760;PMS5003;47664;51.660;-0.100;2023-04-06T03:07:11;8;8;
61760;PMS5003;47664;51.660;-0.100;2023-04-06T03:09:39;7;7;
61760;PMS5003;47664;51.660;-0.100;2023-04-06T03:12:06;9;7;
61760;PMS5003;47664;51.660;-0.100;2023-04-06T03:14:34;11;8;
61760;PMS5003;47664;51.660;-0.100;2023-04-06T03:17:01;9;8;
61760;PMS5003;47664;51.660;-0.100;2023-04-06T03:19:29;10;10;
61760;PMS5003;47664;51.660;-0.100;2023-04-06T03:21:56;11;8;
61760;PMS5003;47664;51.660;-0.100;2023-04-06T03:24:23;8;7;
61760;PMS5003;47664;51.660;-0.100;2023-04-06T03:26:50;9;9;
61760;PMS5003;47664;51.660;-0.100;2023-04-06T03:29:17;9;8;
61760;PMS5003;47664;51.660;-0.100;2023-04-06T03:31:44;12;9;
61760;PMS5003;47664;51.660;-0.100;2023-04-06T03:34:11;12;10;
61760;PMS5003;47664;51.660;-0.100;2023-04-06T03:36:38;15;12;
61760;PMS5003;47664;51.660;-0.100;2023-04-06T03:39:06;13;10;
61760;PMS5003;47664;51.660;-0.100;2023-04-06T03:41:34;13;13;
61760;PMS5003;47664;51.660;-0.100;2023-04-06T03:44:01;11;11;
61760;PMS5003;47664;51.660;-0.100;2023-04-06T03:46:29;12;12;
61760;PMS5003;47664;51.660;-0.100;2023-04-06T03:48:56;11;11;
61760;PMS5003;47664;51.660;-0.100;2023-04-06T03:51:23;13;13;
61760;PMS5003;47664;51.660;-0.100;2023-04-06T03:53:50;18;17;
61760;PMS5003;47664;51.660;-0.100;2023-04-06T03:56:17;11;10;
61760;PMS5003;47664;51.660;-0.100;2023-04-06T03:58:44;15;11;
61760;PMS5003;47664;51.660;-0.100;2023-04-06T04:01:12;12;12;
61760;PMS5003;47664;51.660;-0.100;2023-04-06T04:03:39;16;13;
61760;PMS5003;47664;51.660;-0.100;2023-04-06T04:06:06;19;17;
61760;PMS5003;47664;51.660;-0.100;2023-04-06T04:08:34;14;13;
61760;PMS5003;47664;51.660;-0.100;2023-04-06T04:11:01;16;13;
61760;PMS5003;47664;51.660;-0.100;2023-04-06T04:13:28;17;13;
61760;PMS5003;47664;51.660;-0.100;2023-04-06T04:15:55;18;13;
61760;PMS5003;47664;51.660;-0.100;2023-04-06T04:18:22;15;13;
61760;PMS5003;47664;51.660;-0.100;2023-04-06T04:20:50;14;14;
61760;PMS5003;47664;51.660;-0.100;2023-04-06T04:23:17;18;15;
61760;PMS5003;47664;51.660;-0.100;2023-04-06T04:25:45;11;11;
61760;PMS5003;47664;51.660;-0.100;2023-04-06T04:28:12;14;12;
61760;PMS5003;47664;51.660;-0.100;2023-04-06T04:30:39;14;14;
61760;PMS5003;47664;51.660;-0.100;2023-04-06T04:33:06;17;14;
61760;PMS5003;47664;51.660;-0.100;2023-04-06T04:35:34;13;12;
61760;PMS5003;47664;51.660;-0.100;2023-04-06T04:38:01;18;16;
61760;PMS5003;47664;51.660;-0.100;2023-04-06T04:40:28;16;14;
61760;PMS5003;47664;51.660;-0.100;2023-04-06T04:42:55;14;13;
61760;PMS5003;47664;51.660;-0.100;2023-04-06T04:45:22;18;18;
61760;PMS5003;47664;51.660;-0.100;2023-04-06T04:47:50;16;13;
61760;PMS5003;47664;51.660;-0.100;2023-04-06T04:50:17;22;14;
61760;PMS5003;47664;51.660;-0.100;2023-04-06T04:52:44;19;19;
61760;PMS5003;47664;51.660;-0.100;2023-04-06T04:55:11;14;14;
61760;PMS5003;47664;51.660;-0.100;2023-04-06T04:57:39;13;13;
61760;PMS5003;47664;51.660;-0.100;2023-04-06T05:00:07;18;15;
61760;PMS5003;47664;51.660;-0.100;2023-04-06T05:02:35;15;13;
61760;PMS5003;47664;51.660;-0.100;2023-04-06T05:05:03;16;15;
61760;PMS5003;47664;51.660;-0.100;2023-04-06T05:07:30;15;15;
61760;PMS5003;47664;51.660;-0.100;2023-04-06T05:09:57;14;14;
61760;PMS5003;47664;51.660;-0.100;2023-04-06T05:12:25;16;14;
61760;PMS5003;47664;51.660;-0.100;2023-04-06T05:14:52;22;20;
61760;PMS5003;47664;51.660;-0.100;2023-04-06T05:17:20;18;14;
61760;PMS5003;47664;51.660;-0.100;2023-04-06T05:19:47;15;15;
61760;PMS5003;47664;51.660;-0.100;2023-04-06T05:22:14;17;12;
61760;PMS5003;47664;51.660;-0.100;2023-04-06T05:24:41;13;13;
61760;PMS5003;47664;51.660;-0.100;2023-04-06T05:27:09;17;14;
61760;PMS5003;47664;51.660;-0.100;2023-04-06T05:29:36;21;18;
61760;PMS5003;47664;51.660;-0.100;2023-04-06T05:32:03;14;13;
61760;PMS5003;47664;51.660;-0.100;2023-04-06T05:34:32;14;13;
61760;PMS5003;47664;51.660;-0.100;2023-04-06T05:36:59;15;15;
61760;PMS5003;47664;51.660;-0.100;2023-04-06T05:39:26;14;14;
61760;PMS5003;47664;51.660;-0.100;2023-04-06T05:41:53;13;12;
61760;PMS5003;47664;51.660;-0.100;2023-04-06T05:44:20;13;11;
61760;PMS5003;47664;51.660;-0.100;2023-04-06T05:46:47;13;13;
61760;PMS5003;47664;51.660;-0.100;2023-04-06T05:49:14;10;10;
61760;PMS5003;47664;51.660;-0.100;2023-04-06T05:51:41;14;10;
61760;PMS5003;47664;51.660;-0.100;2023-04-06T05:54:09;12;9;
61760;PMS5003;47664;51.660;-0.100;2023-04-06T05:56:36;11;8;
61760;PMS5003;47664;51.660;-0.100;2023-04-06T05:59:03;13;11;
61760;PMS5003;47664;51.660;-0.100;2023-04-06T06:01:32;13;10;
61760;PMS5003;47664;51.660;-0.100;2023-04-06T06:04:00;10;10;
61760;PMS5003;47664;51.660;-0.100;2023-04-06T06:06:28;12;11;
61760;PMS5003;47664;51.660;-0.100;2023-04-06T06:08:54;15;11;
61760;PMS5003;47664;51.660;-0.100;2023-04-06T06:11:21;10;9;
61760;PMS5003;47664;51.660;-0.100;2023-04-06T06:13:48;11;11;
61760;PMS5003;47664;51.660;-0.100;2023-04-06T06:16:16;13;11;
61760;PMS5003;47664;51.660;-0.100;2023-04-06T06:18:44;11;9;
61760;PMS5003;47664;51.660;-0.100;2023-04-06T06:21:11;15;11;
61760;PMS5003;47664;51.660;-0.100;2023-04-06T06:23:39;19;13;
61760;PMS5003;47664;51.660;-0.100;2023-04-06T06:26:06;19;15;
61760;PMS5003;47664;51.660;-0.100;2023-04-06T06:28:34;9;9;
61760;PMS5003;47664;51.660;-0.100;2023-04-06T06:31:02;15;14;
61760;PMS5003;47664;51.660;-0.100;2023-04-06T06:33:29;15;12;
61760;PMS5003;47664;51.660;-0.100;2023-04-06T06:35:57;18;17;
61760;PMS5003;47664;51.660;-0.100;2023-04-06T06:38:24;15;13;
61760;PMS5003;47664;51.660;-0.100;2023-04-06T06:40:52;17;11;
61760;PMS5003;47664;51.660;-0.100;2023-04-06T06:43:19;15;15;
61760;PMS5003;47664;51.660;-0.100;2023-04-06T06:45:46;11;11;
61760;PMS5003;47664;51.660;-0.100;2023-04-06T06:48:14;19;14;
61760;PMS5003;47664;51.660;-0.100;2023-04-06T06:50:41;12;11;
61760;PMS5003;47664;51.660;-0.100;2023-04-06T06:53:08;18;16;
61760;PMS5003;47664;51.660;-0.100;2023-04-06T06:55:36;15;12;
61760;PMS5003;47664;51.660;-0.100;2023-04-06T06:58:03;16;12;
61760;PMS5003;47664;51.660;-0.100;2023-04-06T07:00:30;9;9;
61760;PMS5003;47664;51.660;-0.100;2023-04-06T07:02:57;9;9;
61760;PMS5003;47664;51.660;-0.100;2023-04-06T07:05:25;9;9;
61760;PMS5003;47664;51.660;-0.100;2023-04-06T07:07:52;8;8;
61760;PMS5003;47664;51.660;-0.100;2023-04-06T07:10:19;8;8;
61760;PMS5003;47664;51.660;-0.100;2023-04-06T07:12:47;8;7;
61760;PMS5003;47664;51.660;-0.100;2023-04-06T07:15:15;9;7;
61760;PMS5003;47664;51.660;-0.100;2023-04-06T07:17:43;9;9;
61760;PMS5003;47664;51.660;-0.100;2023-04-06T07:20:10;9;8;
61760;PMS5003;47664;51.660;-0.100;2023-04-06T07:22:38;11;9;
61760;PMS5003;47664;51.660;-0.100;2023-04-06T07:25:06;10;9;
61760;PMS5003;47664;51.660;-0.100;2023-04-06T07:27:34;11;7;
61760;PMS5003;47664;51.660;-0.100;2023-04-06T07:30:01;8;6;
61760;PMS5003;47664;51.660;-0.100;2023-04-06T07:32:29;11;11;
61760;PMS5003;47664;51.660;-0.100;2023-04-06T07:34:56;12;10;
61760;PMS5003;47664;51.660;-0.100;2023-04-06T07:37:24;8;6;
61760;PMS5003;47664;51.660;-0.100;2023-04-06T07:39:51;9;9;
61760;PMS5003;47664;51.660;-0.100;2023-04-06T07:42:18;6;6;
61760;PMS5003;47664;51.660;-0.100;2023-04-06T07:44:45;9;7;
61760;PMS5003;47664;51.660;-0.100;2023-04-06T07:47:15;10;8;
61760;PMS5003;47664;51.660;-0.100;2023-04-06T07:49:41;11;8;
61760;PMS5003;47664;51.660;-0.100;2023-04-06T07:52:09;12;12;
61760;PMS5003;47664;51.660;-0.100;2023-04-06T07:54:36;14;9;
61760;PMS5003;47664;51.660;-0.100;2023-04-06T07:57:03;10;10;
61760;PMS5003;47664;51.660;-0.100;2023-04-06T07:59:31;7;7;
61760;PMS5003;47664;51.660;-0.100;2023-04-06T08:01:58;10;9;
61760;PMS5003;47664;51.660;-0.100;2023-04-06T08:04:25;8;7;
61760;PMS5003;47664;51.660;-0.100;2023-04-06T08:06:53;8;7;
61760;PMS5003;47664;51.660;-0.100;2023-04-06T08:09:20;10;9;
61760;PMS5003;47664;51.660;-0.100;2023-04-06T08:11:47;11;8;
61760;PMS5003;47664;51.660;-0.100;2023-04-06T08:14:14;7;7;
61760;PMS5003;47664;51.660;-0.100;2023-04-06T08:16:42;10;9;
61760;PMS5003;47664;51.660;-0.100;2023-04-06T08:19:09;8;8;
61760;PMS5003;47664;51.660;-0.100;2023-04-06T08:21:37;9;8;
61760;PMS5003;47664;51.660;-0.100;2023-04-06T08:24:05;9;8;
61760;PMS5003;47664;51.660;-0.100;2023-04-06T08:26:32;11;8;
61760;PMS5003;47664;51.660;-0.100;2023-04-06T08:29:00;10;9;
61760;PMS5003;47664;51.660;-0.100;2023-04-06T08:31:27;10;8;
61760;PMS5003;47664;51.660;-0.100;2023-04-06T08:33:54;9;7;
61760;PMS5003;47664;51.660;-0.100;2023-04-06T08:36:21;8;8;
61760;PMS5003;47664;51.660;-0.100;2023-04-06T08:38:49;7;7;
61760;PMS5003;47664;51.660;-0.100;2023-04-06T08:41:16;7;7;
61760;PMS5003;47664;51.660;-0.100;2023-04-06T08:43:46;7;5;
61760;PMS5003;47664;51.660;-0.100;2023-04-06T08:46:15;13;7;
61760;PMS5003;47664;51.660;-0.100;2023-04-06T08:48:43;5;5;
61760;PMS5003;47664;51.660;-0.100;2023-04-06T08:51:13;9;9;
61760;PMS5003;47664;51.660;-0.100;2023-04-06T08:53:41;9;7;
61760;PMS5003;47664;51.660;-0.100;2023-04-06T08:56:09;10;7;
61760;PMS5003;47664;51.660;-0.100;2023-04-06T08:58:37;5;4;
61760;PMS5003;47664;51.660;-0.100;2023-04-06T09:01:07;8;7;
61760;PMS5003;47664;51.660;-0.100;2023-04-06T09:03:39;8;6;
61760;PMS5003;47664;51.660;-0.100;2023-04-06T09:06:07;6;6;
61760;PMS5003;47664;51.660;-0.100;2023-04-06T09:08:35;8;5;
61760;PMS5003;47664;51.660;-0.100;2023-04-06T09:11:04;7;7;
61760;PMS5003;47664;51.660;-0.100;2023-04-06T09:13:32;9;6;
61760;PMS5003;47664;51.660;-0.100;2023-04-06T09:16:12;6;4;
61760;PMS5003;47664;51.660;-0.100;2023-04-06T09:18:39;4;3;
61760;PMS5003;47664;51.660;-0.100;2023-04-06T09:21:06;7;6;
61760;PMS5003;47664;51.660;-0.100;2023-04-06T09:23:34;5;2;
61760;PMS5003;47664;51.660;-0.100;2023-04-06T09:26:05;6;6;
61760;PMS5003;47664;51.660;-0.100;2023-04-06T09:28:42;7;4;
61760;PMS5003;47664;51.660;-0.100;2023-04-06T09:31:11;5;5;
61760;PMS5003;47664;51.660;-0.100;2023-04-06T09:33:40;5;3;
61760;PMS5003;47664;51.660;-0.100;2023-04-06T09:36:08;3;3;
61760;PMS5003;47664;51.660;-0.100;2023-04-06T09:38:37;5;3;
61760;PMS5003;47664;51.660;-0.100;2023-04-06T09:41:05;4;2;
61760;PMS5003;47664;51.660;-0.100;2023-04-06T09:43:32;3;3;
61760;PMS5003;47664;51.660;-0.100;2023-04-06T09:46:00;8;4;
61760;PMS5003;47664;51.660;-0.100;2023-04-06T09:48:28;5;3;
61760;PMS5003;47664;51.660;-0.100;2023-04-06T09:51:01;6;4;
61760;PMS5003;47664;51.660;-0.100;2023-04-06T09:53:31;6;2;
61760;PMS5003;47664;51.660;-0.100;2023-04-06T09:56:02;4;4;
61760;PMS5003;47664;51.660;-0.100;2023-04-06T09:58:34;7;7;
61760;PMS5003;47664;51.660;-0.100;2023-04-06T10:01:08;7;2;
61760;PMS5003;47664;51.660;-0.100;2023-04-06T10:03:41;3;1;
61760;PMS5003;47664;51.660;-0.100;2023-04-06T10:06:15;3;3;
61760;PMS5003;47664;51.660;-0.100;2023-04-06T10:08:49;3;3;
61760;PMS5003;47664;51.660;-0.100;2023-04-06T10:11:17;4;2;
61760;PMS5003;47664;51.660;-0.100;2023-04-06T10:13:46;2;2;
61760;PMS5003;47664;51.660;-0.100;2023-04-06T10:16:15;4;2;
61760;PMS5003;47664;51.660;-0.100;2023-04-06T10:18:44;4;3;
61760;PMS5003;47664;51.660;-0.100;2023-04-06T10:21:18;1;1;
61760;PMS5003;47664;51.660;-0.100;2023-04-06T10:23:48;2;1;
61760;PMS5003;47664;51.660;-0.100;2023-04-06T10:26:20;3;3;
61760;PMS5003;47664;51.660;-0.100;2023-04-06T10:28:48;3;1;
61760;PMS5003;47664;51.660;-0.100;2023-04-06T10:31:24;3;3;
61760;PMS5003;47664;51.660;-0.100;2023-04-06T10:33:53;0;0;
61760;PMS5003;47664;51.660;-0.100;2023-04-06T10:36:22;4;1;
61760;PMS5003;47664;51.660;-0.100;2023-04-06T10:38:53;1;1;
61760;PMS5003;47664;51.660;-0.100;2023-04-06T10:41:22;1;1;
61760;PMS5003;47664;51.660;-0.100;2023-04-06T10:43:55;1;1;
61760;PMS5003;47664;51.660;-0.100;2023-04-06T10:46:25;1;1;
61760;PMS5003;47664;51.660;-0.100;2023-04-06T10:48:53;1;1;
61760;PMS5003;47664;51.660;-0.100;2023-04-06T10:51:24;1;1;
61760;PMS5003;47664;51.660;-0.100;2023-04-06T10:53:53;2;2;
61760;PMS5003;47664;51.660;-0.100;2023-04-06T10:56:22;2;2;
61760;PMS5003;47664;51.660;-0.100;2023-04-06T10:58:51;0;0;
61760;PMS5003;47664;51.660;-0.100;2023-04-06T11:01:20;3;1;
61760;PMS5003;47664;51.660;-0.100;2023-04-06T11:03:49;3;1;
61760;PMS5003;47664;51.660;-0.100;2023-04-06T11:06:18;1;0;
61760;PMS5003;47664;51.660;-0.100;2023-04-06T11:08:45;3;2;
61760;PMS5003;47664;51.660;-0.100;2023-04-06T11:11:13;3;2;
61760;PMS5003;47664;51.660;-0.100;2023-04-06T11:13:42;2;2;
61760;PMS5003;47664;51.660;-0.100;2023-04-06T11:16:12;3;1;
61760;PMS5003;47664;51.660;-0.100;2023-04-06T11:18:46;2;1;
61760;PMS5003;47664;51.660;-0.100;2023-04-06T11:21:15;1;1;
61760;PMS5003;47664;51.660;-0.100;2023-04-06T11:23:42;4;2;
61760;PMS5003;47664;51.660;-0.100;2023-04-06T11:26:10;0;0;
61760;PMS5003;47664;51.660;-0.100;2023-04-06T11:28:38;2;2;
61760;PMS5003;47664;51.660;-0.100;2023-04-06T11:31:06;4;2;
61760;PMS5003;47664;51.660;-0.100;2023-04-06T11:33:35;2;2;
61760;PMS5003;47664;51.660;-0.100;2023-04-06T11:36:03;5;2;
61760;PMS5003;47664;51.660;-0.100;2023-04-06T11:38:31;2;2;
61760;PMS5003;47664;51.660;-0.100;2023-04-06T11:41:00;1;1;
61760;PMS5003;47664;51.660;-0.100;2023-04-06T11:43:28;2;2;
61760;PMS5003;47664;51.660;-0.100;2023-04-06T11:46:00;3;1;
61760;PMS5003;47664;51.660;-0.100;2023-04-06T11:48:28;2;1;
61760;PMS5003;47664;51.660;-0.100;2023-04-06T11:50:55;3;1;
61760;PMS5003;47664;51.660;-0.100;2023-04-06T11:53:23;0;0;
61760;PMS5003;47664;51.660;-0.100;2023-04-06T11:55:50;2;1;
61760;PMS5003;47664;51.660;-0.100;2023-04-06T11:58:17;4;1;
61760;PMS5003;47664;51.660;-0.100;2023-04-06T12:00:45;1;1;
61760;PMS5003;47664;51.660;-0.100;2023-04-06T12:03:12;2;0;
61760;PMS5003;47664;51.660;-0.100;2023-04-06T12:05:39;0;0;
61760;PMS5003;47664;51.660;-0.100;2023-04-06T12:08:07;3;1;
61760;PMS5003;47664;51.660;-0.100;2023-04-06T12:10:35;2;1;
61760;PMS5003;47664;51.660;-0.100;2023-04-06T12:13:02;1;1;
61760;PMS5003;47664;51.660;-0.100;2023-04-06T12:15:30;2;0;
61760;PMS5003;47664;51.660;-0.100;2023-04-06T12:17:57;1;1;
61760;PMS5003;47664;51.660;-0.100;2023-04-06T12:20:24;0;0;
61760;PMS5003;47664;51.660;-0.100;2023-04-06T12:22:51;2;1;
61760;PMS5003;47664;51.660;-0.100;2023-04-06T12:25:18;3;1;
61760;PMS5003;47664;51.660;-0.100;2023-04-06T12:27:45;1;1;
61760;PMS5003;47664;51.660;-0.100;2023-04-06T12:30:12;0;0;
61760;PMS5003;47664;51.660;-0.100;2023-04-06T12:32:40;1;1;
61760;PMS5003;47664;51.660;-0.100;2023-04-06T12:35:08;3;3;
61760;PMS5003;47664;51.660;-0.100;2023-04-06T12:37:35;2;1;
61760;PMS5003;47664;51.660;-0.100;2023-04-06T12:40:03;3;1;
61760;PMS5003;47664;51.660;-0.100;2023-04-06T12:42:31;2;1;
61760;PMS5003;47664;51.660;-0.100;2023-04-06T12:44:58;0;0;
61760;PMS5003;47664;51.660;-0.100;2023-04-06T12:47:25;1;1;
61760;PMS5003;47664;51.660;-0.100;2023-04-06T12:49:52;0;0;
61760;PMS5003;47664;51.660;-0.100;2023-04-06T12:52:19;1;1;
61760;PMS5003;47664;51.660;-0.100;2023-04-06T12:54:47;1;1;
61760;PMS5003;47664;51.660;-0.100;2023-04-06T12:57:14;0;0;
61760;PMS5003;47664;51.660;-0.100;2023-04-06T12:59:42;4;1;
61760;PMS5003;47664;51.660;-0.100;2023-04-06T13:02:10;4;1;
61760;PMS5003;47664;51.660;-0.100;2023-04-06T13:04:38;2;0;
61760;PMS5003;47664;51.660;-0.100;2023-04-06T13:07:05;0;0;
61760;PMS5003;47664;51.660;-0.100;2023-04-06T13:09:32;1;0;
61760;PMS5003;47664;51.660;-0.100;2023-04-06T13:11:59;0;0;
61760;PMS5003;47664;51.660;-0.100;2023-04-06T13:14:26;0;0;
61760;PMS5003;47664;51.660;-0.100;2023-04-06T13:16:53;2;1;
61760;PMS5003;47664;51.660;-0.100;2023-04-06T13:19:20;0;0;
61760;PMS5003;47664;51.660;-0.100;2023-04-06T13:21:47;1;1;
61760;PMS5003;47664;51.660;-0.100;2023-04-06T13:24:14;4;1;
61760;PMS5003;47664;51.660;-0.100;2023-04-06T13:26:42;2;2;
61760;PMS5003;47664;51.660;-0.100;2023-04-06T13:29:09;1;1;
61760;PMS5003;47664;51.660;-0.100;2023-04-06T13:31:36;1;1;
61760;PMS5003;47664;51.660;-0.100;2023-04-06T13:34:04;0;0;
61760;PMS5003;47664;51.660;-0.100;2023-04-06T13:36:31;0;0;
61760;PMS5003;47664;51.660;-0.100;2023-04-06T13:38:58;1;1;
61760;PMS5003;47664;51.660;-0.100;2023-04-06T13:41:25;3;2;
61760;PMS5003;47664;51.660;-0.100;2023-04-06T13:43:53;1;1;
61760;PMS5003;47664;51.660;-0.100;2023-04-06T13:46:20;2;0;
61760;PMS5003;47664;51.660;-0.100;2023-04-06T13:48:47;1;1;
61760;PMS5003;47664;51.660;-0.100;2023-04-06T13:51:14;2;2;
61760;PMS5003;47664;51.660;-0.100;2023-04-06T13:53:41;0;0;
61760;PMS5003;47664;51.660;-0.100;2023-04-06T13:56:09;1;1;
61760;PMS5003;47664;51.660;-0.100;2023-04-06T13:58:36;2;1;
61760;PMS5003;47664;51.660;-0.100;2023-04-06T14:01:03;2;2;
61760;PMS5003;47664;51.660;-0.100;2023-04-06T14:03:31;9;9;
61760;PMS5003;47664;51.660;-0.100;2023-04-06T14:05:59;4;2;
61760;PMS5003;47664;51.660;-0.100;2023-04-06T14:08:26;2;2;
61760;PMS5003;47664;51.660;-0.100;2023-04-06T14:10:53;5;0;
61760;PMS5003;47664;51.660;-0.100;2023-04-06T14:13:20;2;2;
61760;PMS5003;47664;51.660;-0.100;2023-04-06T14:15:47;2;1;
61760;PMS5003;47664;51.660;-0.100;2023-04-06T14:18:19;3;2;
61760;PMS5003;47664;51.660;-0.100;2023-04-06T14:20:53;0;0;
61760;PMS5003;47664;51.660;-0.100;2023-04-06T14:23:20;3;1;
61760;PMS5003;47664;51.660;-0.100;2023-04-06T14:25:47;3;2;
61760;PMS5003;47664;51.660;-0.100;2023-04-06T14:28:14;3;2;
61760;PMS5003;47664;51.660;-0.100;2023-04-06T14:30:41;0;0;
61760;PMS5003;47664;51.660;-0.100;2023-04-06T14:33:08;2;0;
61760;PMS5003;47664;51.660;-0.100;2023-04-06T14:35:37;6;6;
61760;PMS5003;47664;51.660;-0.100;2023-04-06T14:38:04;7;7;
61760;PMS5003;47664;51.660;-0.100;2023-04-06T14:40:34;8;6;
61760;PMS5003;47664;51.660;-0.100;2023-04-06T14:43:02;8;6;
61760;PMS5003;47664;51.660;-0.100;2023-04-06T14:45:29;2;2;
61760;PMS5003;47664;51.660;-0.100;2023-04-06T14:48:00;4;4;
61760;PMS5003;47664;51.660;-0.100;2023-04-06T14:50:27;3;1;
61760;PMS5003;47664;51.660;-0.100;2023-04-06T14:52:54;3;2;
61760;PMS5003;47664;51.660;-0.100;2023-04-06T14:55:21;7;3;
61760;PMS5003;47664;51.660;-0.100;2023-04-06T14:57:47;1;1;
61760;PMS5003;47664;51.660;-0.100;2023-04-06T15:00:15;2;1;
61760;PMS5003;47664;51.660;-0.100;2023-04-06T15:02:42;1;1;
61760;PMS5003;47664;51.660;-0.100;2023-04-06T15:05:10;2;1;
61760;PMS5003;47664;51.660;-0.100;2023-04-06T15:07:37;0;0;
61760;PMS5003;47664;51.660;-0.100;2023-04-06T15:10:06;1;1;
61760;PMS5003;47664;51.660;-0.100;2023-04-06T15:12:35;3;0;
61760;PMS5003;47664;51.660;-0.100;2023-04-06T15:15:02;1;1;
61760;PMS5003;47664;51.660;-0.100;2023-04-06T15:17:30;2;1;
61760;PMS5003;47664;51.660;-0.100;2023-04-06T15:19:57;2;1;
61760;PMS5003;47664;51.660;-0.100;2023-04-06T15:22:24;0;0;
61760;PMS5003;47664;51.660;-0.100;2023-04-06T15:24:51;1;1;
61760;PMS5003;47664;51.660;-0.100;2023-04-06T15:27:18;1;1;
61760;PMS5003;47664;51.660;-0.100;2023-04-06T15:29:45;0;0;
61760;PMS5003;47664;51.660;-0.100;2023-04-06T15:32:12;0;0;
61760;PMS5003;47664;51.660;-0.100;2023-04-06T15:34:40;1;1;
61760;PMS5003;47664;51.660;-0.100;2023-04-06T15:37:07;3;1;
61760;PMS5003;47664;51.660;-0.100;2023-04-06T15:39:34;0;0;
61760;PMS5003;47664;51.660;-0.100;2023-04-06T15:42:02;1;1;
61760;PMS5003;47664;51.660;-0.100;2023-04-06T15:44:29;0;0;
61760;PMS5003;47664;51.660;-0.100;2023-04-06T15:46:56;0;0;
61760;PMS5003;47664;51.660;-0.100;2023-04-06T15:49:23;1;1;
61760;PMS5003;47664;51.660;-0.100;2023-04-06T15:51:51;0;0;
61760;PMS5003;47664;51.660;-0.100;2023-04-06T15:54:18;0;0;
61760;PMS5003;47664;51.660;-0.100;2023-04-06T15:56:46;2;1;
61760;PMS5003;47664;51.660;-0.100;2023-04-06T15:59:14;1;1;
61760;PMS5003;47664;51.660;-0.100;2023-04-06T16:01:41;0;0;
61760;PMS5003;47664;51.660;-0.100;2023-04-06T16:04:08;0;0;
61760;PMS5003;47664;51.660;-0.100;2023-04-06T16:06:36;0;0;
61760;PMS5003;47664;51.660;-0.100;2023-04-06T16:09:03;4;1;
61760;PMS5003;47664;51.660;-0.100;2023-04-06T16:11:31;0;0;
61760;PMS5003;47664;51.660;-0.100;2023-04-06T16:13:58;0;0;
61760;PMS5003;47664;51.660;-0.100;2023-04-06T16:16:25;1;1;
61760;PMS5003;47664;51.660;-0.100;2023-04-06T16:18:52;2;1;
61760;PMS5003;47664;51.660;-0.100;2023-04-06T16:21:19;1;1;
61760;PMS5003;47664;51.660;-0.100;2023-04-06T16:23:46;2;0;